createdAt,value
2018-07-08T00:00:04.639Z,15.80
2018-07-08T00:01:04.835Z,15.80
2018-07-08T00:02:04.705Z,15.70
2018-07-08T00:03:05.401Z,15.70
2018-07-08T00:04:05.242Z,15.70
2018-07-08T00:05:04.988Z,15.70
2018-07-08T00:06:04.972Z,15.70
2018-07-08T00:07:05.292Z,15.70
2018-07-08T00:08:04.690Z,15.70
2018-07-08T00:09:05.450Z,15.60
2018-07-08T00:10:05.162Z,15.70
2018-07-08T00:11:05.547Z,15.60
2018-07-08T00:12:05.361Z,15.60
2018-07-08T00:13:05.135Z,15.60
2018-07-08T00:14:04.739Z,15.60
2018-07-08T00:15:05.316Z,15.60
2018-07-08T00:16:05.057Z,15.60
2018-07-08T00:17:04.723Z,15.50
2018-07-08T00:18:04.546Z,15.50
2018-07-08T00:19:05.045Z,15.50
2018-07-08T00:20:05.469Z,15.50
2018-07-08T00:21:04.715Z,15.50
2018-07-08T00:22:04.627Z,15.50
2018-07-08T00:23:04.790Z,15.50
2018-07-08T00:24:05.422Z,15.50
2018-07-08T00:25:05.577Z,15.50
2018-07-08T00:26:05.459Z,15.50
2018-07-08T00:27:04.941Z,15.50
2018-07-08T00:28:05.042Z,15.50
2018-07-08T00:29:05.616Z,15.50
2018-07-08T00:30:04.993Z,15.50
2018-07-08T00:31:05.425Z,15.50
2018-07-08T00:32:04.884Z,15.50
2018-07-08T00:33:05.385Z,15.50
2018-07-08T00:34:04.605Z,15.50
2018-07-08T00:35:04.585Z,15.50
2018-07-08T00:36:04.595Z,15.50
2018-07-08T00:37:05.087Z,15.50
2018-07-08T00:38:04.861Z,15.50
2018-07-08T00:39:05.478Z,15.50
2018-07-08T00:40:05.474Z,15.50
2018-07-08T00:41:04.921Z,15.50
2018-07-08T00:42:05.338Z,15.50
2018-07-08T00:43:04.770Z,15.50
2018-07-08T00:44:05.161Z,15.50
2018-07-08T00:45:04.784Z,15.50
2018-07-08T00:46:04.608Z,15.40
2018-07-08T00:47:05.227Z,15.40
2018-07-08T00:48:05.004Z,15.40
2018-07-08T00:49:04.932Z,15.40
2018-07-08T00:50:05.631Z,15.40
2018-07-08T00:51:05.398Z,15.30
2018-07-08T00:52:04.935Z,15.30
2018-07-08T00:53:05.424Z,15.30
2018-07-08T00:54:05.625Z,15.30
2018-07-08T00:55:04.915Z,15.30
2018-07-08T00:56:06.431Z,15.20
2018-07-08T00:57:04.863Z,15.20
2018-07-08T00:58:05.430Z,15.20
2018-07-08T00:59:05.321Z,15.20
2018-07-08T01:00:04.583Z,15.20
2018-07-08T01:01:05.006Z,15.20
2018-07-08T01:02:04.659Z,15.20
2018-07-08T01:03:05.053Z,15.10
2018-07-08T01:04:05.480Z,15.10
2018-07-08T01:05:05.767Z,15.10
2018-07-08T01:06:05.259Z,15.10
2018-07-08T01:07:05.014Z,15.10
2018-07-08T01:08:05.090Z,15.10
2018-07-08T01:09:06.567Z,15.10
2018-07-08T01:10:04.672Z,15.10
2018-07-08T01:11:05.396Z,15.10
2018-07-08T01:12:04.982Z,15.10
2018-07-08T01:13:05.459Z,15.00
2018-07-08T01:14:04.724Z,15.00
2018-07-08T01:15:05.577Z,15.00
2018-07-08T01:16:04.670Z,15.00
2018-07-08T01:17:05.035Z,14.90
2018-07-08T01:18:05.204Z,14.90
2018-07-08T01:19:05.056Z,14.90
2018-07-08T01:20:04.632Z,14.90
2018-07-08T01:21:04.816Z,14.90
2018-07-08T01:22:04.751Z,14.90
2018-07-08T01:23:05.251Z,14.90
2018-07-08T01:24:04.798Z,14.90
2018-07-08T01:25:05.432Z,14.90
2018-07-08T01:26:05.177Z,14.80
2018-07-08T01:27:04.920Z,14.80
2018-07-08T01:28:05.125Z,14.80
2018-07-08T01:29:05.476Z,14.80
2018-07-08T01:30:04.963Z,14.80
2018-07-08T01:31:05.404Z,14.80
2018-07-08T01:32:05.513Z,14.80
2018-07-08T01:33:05.026Z,14.80
2018-07-08T01:34:05.323Z,14.70
2018-07-08T01:35:04.775Z,14.70
2018-07-08T01:36:04.672Z,14.70
2018-07-08T01:37:05.092Z,14.70
2018-07-08T01:38:04.683Z,14.70
2018-07-08T01:39:04.920Z,14.70
2018-07-08T01:40:04.928Z,14.70
2018-07-08T01:41:05.612Z,14.60
2018-07-08T01:42:05.963Z,14.60
2018-07-08T01:43:04.947Z,14.60
2018-07-08T01:44:05.429Z,14.60
2018-07-08T01:45:05.736Z,14.60
2018-07-08T01:46:05.245Z,14.60
2018-07-08T01:47:05.228Z,14.60
2018-07-08T01:48:04.921Z,14.60
2018-07-08T01:49:04.597Z,14.50
2018-07-08T01:50:05.009Z,14.50
2018-07-08T01:51:04.886Z,14.50
2018-07-08T01:52:05.138Z,14.50
2018-07-08T01:53:04.664Z,14.50
2018-07-08T01:54:04.858Z,14.50
2018-07-08T01:55:04.801Z,14.50
2018-07-08T01:56:05.528Z,14.50
2018-07-08T01:57:04.726Z,14.50
2018-07-08T01:58:04.544Z,14.50
2018-07-08T01:59:05.426Z,14.50
2018-07-08T02:00:05.309Z,14.50
2018-07-08T02:01:05.543Z,14.50
2018-07-08T02:02:05.339Z,14.50
2018-07-08T02:03:05.335Z,14.50
2018-07-08T02:04:04.590Z,14.50
2018-07-08T02:05:05.313Z,14.40
2018-07-08T02:06:05.780Z,14.40
2018-07-08T02:07:04.828Z,14.40
2018-07-08T02:08:05.359Z,14.40
2018-07-08T02:09:05.227Z,14.40
2018-07-08T02:10:05.403Z,14.40
2018-07-08T02:11:05.387Z,14.40
2018-07-08T02:12:05.281Z,14.40
2018-07-08T02:13:05.829Z,14.40
2018-07-08T02:14:05.282Z,14.40
2018-07-08T02:15:05.421Z,14.40
2018-07-08T02:16:05.536Z,14.40
2018-07-08T02:17:04.812Z,14.40
2018-07-08T02:18:04.685Z,14.40
2018-07-08T02:19:05.310Z,14.40
2018-07-08T02:20:05.286Z,14.30
2018-07-08T02:21:04.920Z,14.30
2018-07-08T02:22:05.097Z,14.30
2018-07-08T02:23:05.135Z,14.30
2018-07-08T02:24:04.896Z,14.20
2018-07-08T02:25:05.572Z,14.20
2018-07-08T02:26:04.577Z,14.20
2018-07-08T02:27:05.018Z,14.20
2018-07-08T02:28:05.345Z,14.10
2018-07-08T02:29:05.125Z,14.10
2018-07-08T02:30:05.299Z,14.10
2018-07-08T02:31:05.319Z,14.00
2018-07-08T02:32:05.226Z,14.00
2018-07-08T02:33:05.142Z,14.00
2018-07-08T02:34:05.429Z,14.00
2018-07-08T02:35:04.720Z,14.00
2018-07-08T02:36:05.232Z,13.90
2018-07-08T02:37:05.094Z,13.90
2018-07-08T02:38:10.122Z,13.90
2018-07-08T02:39:05.510Z,13.90
2018-07-08T02:40:05.303Z,13.90
2018-07-08T02:41:05.484Z,13.80
2018-07-08T02:42:05.565Z,13.80
2018-07-08T02:43:05.393Z,13.80
2018-07-08T02:44:05.297Z,13.80
2018-07-08T02:45:05.007Z,13.80
2018-07-08T02:46:05.181Z,13.80
2018-07-08T02:47:05.006Z,13.80
2018-07-08T02:48:04.579Z,13.80
2018-07-08T02:49:04.729Z,13.80
2018-07-08T02:50:05.274Z,13.80
2018-07-08T02:51:04.866Z,13.90
2018-07-08T02:52:05.497Z,13.90
2018-07-08T02:53:05.232Z,13.90
2018-07-08T02:54:05.015Z,13.90
2018-07-08T02:55:04.855Z,13.90
2018-07-08T02:56:05.293Z,13.90
2018-07-08T02:57:05.569Z,13.90
2018-07-08T02:58:10.551Z,13.90
2018-07-08T02:59:05.431Z,13.90
2018-07-08T03:00:04.739Z,13.90
2018-07-08T03:01:05.273Z,13.90
2018-07-08T03:02:04.715Z,13.90
2018-07-08T03:03:04.659Z,13.90
2018-07-08T03:04:05.667Z,13.90
2018-07-08T03:05:05.368Z,13.90
2018-07-08T03:06:05.338Z,13.90
2018-07-08T03:07:04.991Z,13.90
2018-07-08T03:08:04.750Z,13.90
2018-07-08T03:09:04.829Z,13.80
2018-07-08T03:10:04.759Z,13.80
2018-07-08T03:11:05.464Z,13.80
2018-07-08T03:12:05.433Z,13.80
2018-07-08T03:13:05.229Z,13.80
2018-07-08T03:14:04.686Z,13.80
2018-07-08T03:15:05.119Z,13.80
2018-07-08T03:16:05.033Z,13.80
2018-07-08T03:17:04.933Z,13.70
2018-07-08T03:18:04.746Z,13.70
2018-07-08T03:19:05.351Z,13.70
2018-07-08T03:20:05.299Z,13.70
2018-07-08T03:21:05.215Z,13.70
2018-07-08T03:22:05.128Z,13.70
2018-07-08T03:23:04.564Z,13.70
2018-07-08T03:24:04.671Z,13.70
2018-07-08T03:25:04.751Z,13.70
2018-07-08T03:26:05.268Z,13.70
2018-07-08T03:27:04.661Z,13.70
2018-07-08T03:28:05.309Z,13.70
2018-07-08T03:29:05.519Z,13.70
2018-07-08T03:30:04.647Z,13.70
2018-07-08T03:31:05.471Z,13.70
2018-07-08T03:32:04.865Z,13.60
2018-07-08T03:33:05.100Z,13.60
2018-07-08T03:34:05.458Z,13.60
2018-07-08T03:35:04.858Z,13.60
2018-07-08T03:36:05.480Z,13.60
2018-07-08T03:37:04.793Z,13.60
2018-07-08T03:38:04.617Z,13.60
2018-07-08T03:39:05.437Z,13.60
2018-07-08T03:40:05.142Z,13.60
2018-07-08T03:41:05.411Z,13.70
2018-07-08T03:42:04.878Z,13.70
2018-07-08T03:43:04.850Z,13.70
2018-07-08T03:44:04.947Z,13.70
2018-07-08T03:45:05.337Z,13.70
2018-07-08T03:46:05.432Z,13.70
2018-07-08T03:47:05.311Z,13.70
2018-07-08T03:48:04.856Z,13.80
2018-07-08T03:49:05.409Z,13.80
2018-07-08T03:50:04.941Z,13.80
2018-07-08T03:51:05.179Z,13.80
2018-07-08T03:52:04.776Z,13.80
2018-07-08T03:53:05.238Z,13.80
2018-07-08T03:54:05.508Z,13.80
2018-07-08T03:55:05.083Z,13.80
2018-07-08T03:56:04.958Z,13.90
2018-07-08T03:57:04.780Z,13.90
2018-07-08T03:58:05.080Z,13.90
2018-07-08T03:59:05.362Z,13.90
2018-07-08T04:00:05.394Z,13.90
2018-07-08T04:01:04.563Z,13.90
2018-07-08T04:02:05.510Z,13.90
2018-07-08T04:03:04.877Z,13.90
2018-07-08T04:04:05.181Z,14.00
2018-07-08T04:05:05.370Z,14.00
2018-07-08T04:06:04.986Z,14.10
2018-07-08T04:07:04.655Z,14.20
2018-07-08T04:08:05.472Z,14.30
2018-07-08T04:09:04.828Z,14.50
2018-07-08T04:10:05.318Z,14.60
2018-07-08T04:11:05.141Z,14.80
2018-07-08T04:12:04.820Z,15.00
2018-07-08T04:13:05.200Z,15.20
2018-07-08T04:14:04.994Z,15.30
2018-07-08T04:15:05.486Z,15.50
2018-07-08T04:16:04.844Z,15.70
2018-07-08T04:17:04.970Z,15.90
2018-07-08T04:18:05.041Z,16.10
2018-07-08T04:19:04.748Z,16.30
2018-07-08T04:20:04.739Z,16.50
2018-07-08T04:21:05.186Z,16.70
2018-07-08T04:22:04.956Z,16.90
2018-07-08T04:23:04.702Z,17.10
2018-07-08T04:24:05.273Z,17.20
2018-07-08T04:25:04.927Z,17.40
2018-07-08T04:26:05.296Z,17.60
2018-07-08T04:27:04.570Z,17.80
2018-07-08T04:28:05.214Z,17.90
2018-07-08T04:29:04.768Z,18.10
2018-07-08T04:30:05.026Z,18.30
2018-07-08T04:31:05.051Z,18.40
2018-07-08T04:32:04.839Z,18.60
2018-07-08T04:33:04.676Z,18.70
2018-07-08T04:34:04.646Z,18.80
2018-07-08T04:35:05.669Z,19.00
2018-07-08T04:36:04.640Z,19.10
2018-07-08T04:37:05.110Z,19.20
2018-07-08T04:38:04.593Z,19.30
2018-07-08T04:39:04.612Z,19.40
2018-07-08T04:40:05.029Z,19.50
2018-07-08T04:41:05.204Z,19.60
2018-07-08T04:42:05.352Z,19.70
2018-07-08T04:43:05.008Z,19.80
2018-07-08T04:44:05.317Z,19.90
2018-07-08T04:45:04.819Z,20.10
2018-07-08T04:46:05.270Z,20.10
2018-07-08T04:47:04.767Z,20.20
2018-07-08T04:48:05.051Z,20.30
2018-07-08T04:49:04.991Z,20.40
2018-07-08T04:50:04.566Z,20.50
2018-07-08T04:51:04.639Z,20.60
2018-07-08T04:52:04.597Z,20.70
2018-07-08T04:53:05.217Z,20.80
2018-07-08T04:54:04.706Z,20.90
2018-07-08T04:55:04.742Z,21.00
2018-07-08T04:56:05.309Z,21.10
2018-07-08T04:57:05.107Z,21.20
2018-07-08T04:58:05.175Z,21.30
2018-07-08T04:59:05.293Z,21.40
2018-07-08T05:00:04.633Z,21.50
2018-07-08T05:01:05.153Z,21.60
2018-07-08T05:02:05.160Z,21.70
2018-07-08T05:03:04.733Z,21.80
2018-07-08T05:04:04.874Z,21.90
2018-07-08T05:05:04.640Z,22.00
2018-07-08T05:06:05.373Z,22.00
2018-07-08T05:07:05.542Z,22.10
2018-07-08T05:08:05.123Z,22.10
2018-07-08T05:09:05.029Z,22.20
2018-07-08T05:10:04.566Z,22.20
2018-07-08T05:11:04.923Z,22.20
2018-07-08T05:12:05.391Z,22.30
2018-07-08T05:13:05.394Z,22.30
2018-07-08T05:14:04.875Z,22.40
2018-07-08T05:15:10.532Z,22.50
2018-07-08T05:16:05.295Z,22.50
2018-07-08T05:17:05.421Z,22.60
2018-07-08T05:18:05.263Z,22.70
2018-07-08T05:19:04.897Z,22.70
2018-07-08T05:20:04.808Z,22.80
2018-07-08T05:21:04.794Z,22.80
2018-07-08T05:22:05.370Z,22.90
2018-07-08T05:23:04.794Z,23.00
2018-07-08T05:24:04.734Z,23.10
2018-07-08T05:25:05.502Z,23.20
2018-07-08T05:26:04.952Z,23.30
2018-07-08T05:27:05.407Z,23.30
2018-07-08T05:28:04.886Z,23.30
2018-07-08T05:29:05.321Z,23.30
2018-07-08T05:30:04.778Z,23.30
2018-07-08T05:31:04.982Z,23.20
2018-07-08T05:32:04.873Z,23.20
2018-07-08T05:33:05.339Z,23.20
2018-07-08T05:34:05.541Z,23.10
2018-07-08T05:35:04.840Z,23.10
2018-07-08T05:36:04.714Z,23.00
2018-07-08T05:37:05.437Z,23.00
2018-07-08T05:38:05.478Z,23.00
2018-07-08T05:39:04.944Z,23.00
2018-07-08T05:40:04.608Z,23.00
2018-07-08T05:41:05.270Z,23.10
2018-07-08T05:42:04.623Z,23.10
2018-07-08T05:43:05.142Z,23.20
2018-07-08T05:44:05.053Z,23.30
2018-07-08T05:45:05.272Z,23.40
2018-07-08T05:46:06.204Z,23.40
2018-07-08T05:47:05.227Z,23.50
2018-07-08T05:48:05.482Z,23.60
2018-07-08T05:49:04.998Z,23.70
2018-07-08T05:50:05.472Z,23.70
2018-07-08T05:51:04.672Z,23.80
2018-07-08T05:52:05.401Z,23.80
2018-07-08T05:53:05.401Z,23.70
2018-07-08T05:54:05.522Z,23.70
2018-07-08T05:55:05.201Z,23.70
2018-07-08T05:56:04.787Z,23.70
2018-07-08T05:57:05.300Z,23.70
2018-07-08T05:58:05.457Z,23.70
2018-07-08T05:59:05.036Z,23.70
2018-07-08T06:00:04.684Z,23.80
2018-07-08T06:01:04.584Z,23.80
2018-07-08T06:02:05.170Z,23.90
2018-07-08T06:03:04.808Z,24.00
2018-07-08T06:04:04.775Z,24.00
2018-07-08T06:05:05.275Z,24.10
2018-07-08T06:06:04.911Z,24.20
2018-07-08T06:07:04.989Z,24.30
2018-07-08T06:08:04.832Z,24.30
2018-07-08T06:09:04.565Z,24.30
2018-07-08T06:10:05.003Z,24.40
2018-07-08T06:11:04.857Z,24.30
2018-07-08T06:12:05.312Z,24.40
2018-07-08T06:13:04.979Z,24.40
2018-07-08T06:14:05.392Z,24.40
2018-07-08T06:15:04.847Z,24.50
2018-07-08T06:16:05.246Z,24.50
2018-07-08T06:17:05.413Z,24.60
2018-07-08T06:18:05.037Z,24.60
2018-07-08T06:19:04.723Z,24.60
2018-07-08T06:20:05.451Z,24.60
2018-07-08T06:21:05.050Z,24.60
2018-07-08T06:22:05.065Z,24.60
2018-07-08T06:23:05.086Z,24.70
2018-07-08T06:24:04.660Z,24.70
2018-07-08T06:25:05.313Z,24.70
2018-07-08T06:26:05.205Z,24.70
2018-07-08T06:27:05.196Z,24.70
2018-07-08T06:28:05.351Z,24.70
2018-07-08T06:29:05.083Z,24.80
2018-07-08T06:30:04.847Z,24.80
2018-07-08T06:31:05.193Z,24.90
2018-07-08T06:32:04.758Z,24.90
2018-07-08T06:33:04.898Z,25.00
2018-07-08T06:34:05.568Z,25.00
2018-07-08T06:35:05.355Z,25.10
2018-07-08T06:36:05.365Z,25.10
2018-07-08T06:37:05.042Z,25.20
2018-07-08T06:38:05.506Z,25.20
2018-07-08T06:39:10.141Z,25.30
2018-07-08T06:40:05.003Z,25.30
2018-07-08T06:41:04.988Z,25.30
2018-07-08T06:42:05.197Z,25.30
2018-07-08T06:43:05.428Z,25.20
2018-07-08T06:44:05.216Z,25.20
2018-07-08T06:45:04.757Z,25.30
2018-07-08T06:46:05.051Z,25.30
2018-07-08T06:47:04.526Z,25.30
2018-07-08T06:48:04.773Z,25.30
2018-07-08T06:49:04.674Z,25.30
2018-07-08T06:50:04.692Z,25.30
2018-07-08T06:51:05.357Z,25.30
2018-07-08T06:52:05.197Z,25.30
2018-07-08T06:53:04.932Z,25.30
2018-07-08T06:54:04.963Z,25.30
2018-07-08T06:55:05.021Z,25.40
2018-07-08T06:56:04.917Z,25.40
2018-07-08T06:57:05.145Z,25.40
2018-07-08T06:58:05.364Z,25.40
2018-07-08T06:59:05.241Z,25.50
2018-07-08T07:00:05.245Z,25.50
2018-07-08T07:01:04.880Z,25.50
2018-07-08T07:02:05.229Z,25.50
2018-07-08T07:03:04.802Z,25.50
2018-07-08T07:04:04.568Z,25.50
2018-07-08T07:05:05.085Z,25.50
2018-07-08T07:06:04.995Z,25.50
2018-07-08T07:07:05.116Z,25.50
2018-07-08T07:08:04.834Z,25.50
2018-07-08T07:09:05.563Z,25.50
2018-07-08T07:10:04.716Z,25.50
2018-07-08T07:11:05.536Z,25.50
2018-07-08T07:12:05.477Z,25.50
2018-07-08T07:13:05.147Z,25.50
2018-07-08T07:14:04.832Z,25.50
2018-07-08T07:15:04.757Z,25.40
2018-07-08T07:16:04.756Z,25.40
2018-07-08T07:17:05.497Z,25.30
2018-07-08T07:18:04.914Z,25.30
2018-07-08T07:19:05.150Z,25.30
2018-07-08T07:20:04.679Z,25.30
2018-07-08T07:21:05.254Z,25.20
2018-07-08T07:22:04.747Z,25.10
2018-07-08T07:23:05.115Z,25.00
2018-07-08T07:24:05.178Z,25.00
2018-07-08T07:25:04.774Z,24.90
2018-07-08T07:26:05.057Z,24.90
2018-07-08T07:27:04.758Z,24.90
2018-07-08T07:28:04.752Z,24.90
2018-07-08T07:29:04.807Z,24.90
2018-07-08T07:30:04.630Z,25.00
2018-07-08T07:31:05.144Z,25.00
2018-07-08T07:32:05.236Z,25.00
2018-07-08T07:33:05.270Z,25.00
2018-07-08T07:34:05.163Z,25.00
2018-07-08T07:35:04.801Z,25.10
2018-07-08T07:36:04.791Z,25.10
2018-07-08T07:37:06.230Z,25.20
2018-07-08T07:38:04.805Z,25.20
2018-07-08T07:39:05.613Z,25.20
2018-07-08T07:40:05.333Z,25.20
2018-07-08T07:41:05.261Z,25.20
2018-07-08T07:42:05.235Z,25.30
2018-07-08T07:43:04.936Z,25.30
2018-07-08T07:44:04.842Z,25.20
2018-07-08T07:45:05.523Z,25.20
2018-07-08T07:46:04.904Z,25.20
2018-07-08T07:47:05.416Z,25.10
2018-07-08T07:48:05.422Z,25.10
2018-07-08T07:49:05.366Z,25.10
2018-07-08T07:50:04.653Z,25.10
2018-07-08T07:51:04.920Z,25.10
2018-07-08T07:52:05.577Z,25.10
2018-07-08T07:53:04.731Z,25.10
2018-07-08T07:54:05.621Z,25.10
2018-07-08T07:55:04.705Z,25.10
2018-07-08T07:56:05.424Z,25.20
2018-07-08T07:57:04.875Z,25.20
2018-07-08T07:58:05.561Z,25.10
2018-07-08T07:59:05.334Z,25.10
2018-07-08T08:00:04.670Z,25.10
2018-07-08T08:01:05.302Z,25.00
2018-07-08T08:02:05.063Z,25.00
2018-07-08T08:03:04.987Z,24.90
2018-07-08T08:04:05.450Z,24.80
2018-07-08T08:05:04.891Z,24.70
2018-07-08T08:06:04.904Z,24.60
2018-07-08T08:07:05.567Z,24.60
2018-07-08T08:08:04.948Z,24.60
2018-07-08T08:09:04.997Z,24.60
2018-07-08T08:10:05.216Z,24.50
2018-07-08T08:11:04.994Z,24.50
2018-07-08T08:12:05.124Z,24.50
2018-07-08T08:13:05.067Z,24.50
2018-07-08T08:14:05.258Z,24.60
2018-07-08T08:15:04.882Z,24.60
2018-07-08T08:16:05.476Z,24.60
2018-07-08T08:17:05.120Z,24.60
2018-07-08T08:18:05.070Z,24.60
2018-07-08T08:19:04.914Z,24.70
2018-07-08T08:20:05.171Z,24.70
2018-07-08T08:21:04.866Z,24.80
2018-07-08T08:22:05.096Z,24.80
2018-07-08T08:23:05.024Z,24.90
2018-07-08T08:24:05.075Z,24.90
2018-07-08T08:25:05.538Z,25.00
2018-07-08T08:26:05.097Z,25.00
2018-07-08T08:27:04.909Z,25.00
2018-07-08T08:28:05.457Z,25.10
2018-07-08T08:29:04.598Z,25.10
2018-07-08T08:30:05.124Z,25.10
2018-07-08T08:31:05.531Z,25.10
2018-07-08T08:32:04.880Z,25.10
2018-07-08T08:33:04.661Z,25.10
2018-07-08T08:34:04.592Z,25.10
2018-07-08T08:35:08.039Z,25.10
2018-07-08T08:36:04.714Z,25.00
2018-07-08T08:37:04.665Z,25.00
2018-07-08T08:38:05.075Z,25.00
2018-07-08T08:39:05.451Z,25.00
2018-07-08T08:40:05.559Z,25.00
2018-07-08T08:41:05.033Z,25.00
2018-07-08T08:42:04.931Z,25.00
2018-07-08T08:43:04.826Z,25.00
2018-07-08T08:44:05.232Z,25.10
2018-07-08T08:45:04.818Z,25.10
2018-07-08T08:46:05.283Z,25.10
2018-07-08T08:47:05.079Z,25.10
2018-07-08T08:48:04.632Z,25.10
2018-07-08T08:49:05.371Z,25.10
2018-07-08T08:50:04.658Z,25.20
2018-07-08T08:51:05.382Z,25.20
2018-07-08T08:52:04.782Z,25.30
2018-07-08T08:53:05.326Z,25.30
2018-07-08T08:54:04.730Z,25.30
2018-07-08T08:55:05.469Z,25.30
2018-07-08T08:56:05.352Z,25.30
2018-07-08T08:57:05.451Z,25.30
2018-07-08T08:58:04.659Z,25.20
2018-07-08T08:59:05.251Z,25.20
2018-07-08T09:00:04.906Z,25.10
2018-07-08T09:01:05.146Z,25.10
2018-07-08T09:02:04.668Z,25.10
2018-07-08T09:03:05.071Z,25.10
2018-07-08T09:04:05.127Z,25.10
2018-07-08T09:05:05.022Z,25.00
2018-07-08T09:06:04.884Z,25.10
2018-07-08T09:07:05.153Z,25.10
2018-07-08T09:08:05.600Z,25.10
2018-07-08T09:09:04.638Z,25.10
2018-07-08T09:10:04.687Z,25.10
2018-07-08T09:11:04.584Z,25.10
2018-07-08T09:12:04.719Z,25.10
2018-07-08T09:13:05.597Z,25.10
2018-07-08T09:14:04.636Z,25.10
2018-07-08T09:15:05.343Z,25.00
2018-07-08T09:16:05.326Z,25.00
2018-07-08T09:17:04.639Z,24.90
2018-07-08T09:18:05.371Z,24.90
2018-07-08T09:19:04.698Z,24.90
2018-07-08T09:20:04.740Z,24.90
2018-07-08T09:21:05.547Z,24.90
2018-07-08T09:22:05.256Z,24.90
2018-07-08T09:23:04.729Z,24.80
2018-07-08T09:24:05.265Z,24.80
2018-07-08T09:25:05.048Z,24.80
2018-07-08T09:26:05.458Z,24.80
2018-07-08T09:27:04.785Z,24.80
2018-07-08T09:28:04.671Z,24.70
2018-07-08T09:29:05.285Z,24.70
2018-07-08T09:30:04.948Z,24.60
2018-07-08T09:31:05.357Z,24.60
2018-07-08T09:32:05.209Z,24.60
2018-07-08T09:33:04.949Z,24.60
2018-07-08T09:34:05.416Z,24.60
2018-07-08T09:35:04.886Z,24.60
2018-07-08T09:36:04.810Z,24.60
2018-07-08T09:37:05.258Z,24.60
2018-07-08T09:38:04.687Z,24.60
2018-07-08T09:39:05.146Z,24.60
2018-07-08T09:40:05.330Z,24.60
2018-07-08T09:41:04.596Z,24.60
2018-07-08T09:42:04.917Z,24.60
2018-07-08T09:43:05.523Z,24.60
2018-07-08T09:44:05.238Z,24.70
2018-07-08T09:45:05.230Z,24.70
2018-07-08T09:46:04.698Z,24.80
2018-07-08T09:47:05.049Z,24.80
2018-07-08T09:48:04.812Z,24.80
2018-07-08T09:49:04.852Z,24.80
2018-07-08T09:50:04.998Z,24.80
2018-07-08T09:51:04.902Z,24.90
2018-07-08T09:52:04.583Z,25.00
2018-07-08T09:53:05.551Z,25.00
2018-07-08T09:54:05.282Z,25.10
2018-07-08T09:55:04.792Z,25.20
2018-07-08T09:56:04.591Z,25.20
2018-07-08T09:57:04.942Z,25.30
2018-07-08T09:58:04.848Z,25.30
2018-07-08T09:59:05.051Z,25.40
2018-07-08T10:00:05.166Z,25.50
2018-07-08T10:01:05.419Z,25.50
2018-07-08T10:02:05.906Z,25.50
2018-07-08T10:03:04.844Z,25.60
2018-07-08T10:04:04.747Z,25.60
2018-07-08T10:05:05.565Z,25.60
2018-07-08T10:06:04.851Z,25.60
2018-07-08T10:07:05.031Z,25.60
2018-07-08T10:08:04.667Z,25.60
2018-07-08T10:09:05.508Z,25.60
2018-07-08T10:10:04.955Z,25.60
2018-07-08T10:11:05.605Z,25.70
2018-07-08T10:12:04.583Z,25.70
2018-07-08T10:13:04.591Z,25.80
2018-07-08T10:14:05.168Z,25.80
2018-07-08T10:15:04.728Z,25.80
2018-07-08T10:16:05.182Z,25.90
2018-07-08T10:17:05.693Z,25.90
2018-07-08T10:18:05.340Z,26.00
2018-07-08T10:19:04.674Z,26.00
2018-07-08T10:20:04.659Z,26.00
2018-07-08T10:21:04.667Z,26.00
2018-07-08T10:22:05.211Z,26.00
2018-07-08T10:23:05.074Z,26.00
2018-07-08T10:24:04.701Z,26.00
2018-07-08T10:25:05.412Z,26.00
2018-07-08T10:26:05.169Z,26.00
2018-07-08T10:27:05.234Z,26.00
2018-07-08T10:28:04.815Z,26.00
2018-07-08T10:29:05.521Z,26.00
2018-07-08T10:30:04.911Z,26.00
2018-07-08T10:31:04.749Z,26.10
2018-07-08T10:32:05.068Z,26.10
2018-07-08T10:33:04.607Z,26.20
2018-07-08T10:34:05.104Z,26.20
2018-07-08T10:35:04.954Z,26.30
2018-07-08T10:36:05.268Z,26.30
2018-07-08T10:37:05.404Z,26.40
2018-07-08T10:38:04.607Z,26.40
2018-07-08T10:39:04.717Z,26.40
2018-07-08T10:40:04.666Z,26.30
2018-07-08T10:41:04.802Z,26.30
2018-07-08T10:42:05.590Z,26.20
2018-07-08T10:43:04.713Z,26.20
2018-07-08T10:44:04.807Z,26.10
2018-07-08T10:45:04.541Z,26.00
2018-07-08T10:46:04.518Z,25.90
2018-07-08T10:47:04.906Z,25.90
2018-07-08T10:48:05.357Z,25.90
2018-07-08T10:49:04.775Z,25.90
2018-07-08T10:50:05.606Z,25.80
2018-07-08T10:51:05.180Z,25.80
2018-07-08T10:52:04.955Z,25.80
2018-07-08T10:53:05.370Z,25.80
2018-07-08T10:54:04.771Z,25.80
2018-07-08T10:55:05.072Z,25.80
2018-07-08T10:56:04.986Z,25.80
2018-07-08T10:57:05.598Z,25.80
2018-07-08T10:58:04.968Z,25.80
2018-07-08T10:59:04.895Z,25.70
2018-07-08T11:00:05.304Z,25.70
2018-07-08T11:01:04.759Z,25.70
2018-07-08T11:02:05.497Z,25.70
2018-07-08T11:03:05.490Z,25.80
2018-07-08T11:04:04.826Z,25.80
2018-07-08T11:05:05.471Z,25.80
2018-07-08T11:06:04.673Z,25.80
2018-07-08T11:07:05.200Z,25.80
2018-07-08T11:08:05.212Z,25.70
2018-07-08T11:09:04.679Z,25.70
2018-07-08T11:10:05.122Z,25.70
2018-07-08T11:11:04.902Z,25.70
2018-07-08T11:12:05.099Z,25.70
2018-07-08T11:13:05.592Z,25.60
2018-07-08T11:14:05.414Z,25.60
2018-07-08T11:15:05.295Z,25.60
2018-07-08T11:16:04.903Z,25.60
2018-07-08T11:17:04.927Z,25.50
2018-07-08T11:18:05.333Z,25.50
2018-07-08T11:19:04.901Z,25.50
2018-07-08T11:20:05.150Z,25.60
2018-07-08T11:21:05.135Z,25.60
2018-07-08T11:22:04.720Z,25.60
2018-07-08T11:23:05.515Z,25.60
2018-07-08T11:24:05.437Z,25.60
2018-07-08T11:25:05.000Z,25.60
2018-07-08T11:26:05.441Z,25.60
2018-07-08T11:27:05.259Z,25.60
2018-07-08T11:28:06.151Z,25.60
2018-07-08T11:29:04.594Z,25.60
2018-07-08T11:30:04.937Z,25.60
2018-07-08T11:31:04.711Z,25.60
2018-07-08T11:32:05.440Z,25.60
2018-07-08T11:33:05.214Z,25.60
2018-07-08T11:34:04.969Z,25.60
2018-07-08T11:35:04.899Z,25.50
2018-07-08T11:36:04.786Z,25.50
2018-07-08T11:37:05.392Z,25.50
2018-07-08T11:38:05.395Z,25.50
2018-07-08T11:39:04.861Z,25.50
2018-07-08T11:40:04.716Z,25.60
2018-07-08T11:41:05.237Z,25.60
2018-07-08T11:42:05.208Z,25.60
2018-07-08T11:43:05.029Z,25.70
2018-07-08T11:44:05.524Z,25.80
2018-07-08T11:45:04.795Z,25.80
2018-07-08T11:46:05.129Z,25.90
2018-07-08T11:47:04.676Z,25.90
2018-07-08T11:48:04.964Z,25.90
2018-07-08T11:49:04.715Z,26.00
2018-07-08T11:50:05.194Z,25.90
2018-07-08T11:51:04.991Z,25.90
2018-07-08T11:52:05.294Z,25.90
2018-07-08T11:53:05.304Z,25.80
2018-07-08T11:54:04.979Z,25.80
2018-07-08T11:55:04.897Z,25.80
2018-07-08T11:56:04.627Z,25.80
2018-07-08T11:57:04.887Z,25.70
2018-07-08T11:58:04.942Z,25.70
2018-07-08T11:59:05.074Z,25.70
2018-07-08T12:00:04.606Z,25.60
2018-07-08T12:01:04.816Z,25.60
2018-07-08T12:02:05.045Z,25.60
2018-07-08T12:03:04.645Z,25.50
2018-07-08T12:04:05.129Z,25.50
2018-07-08T12:05:04.708Z,25.40
2018-07-08T12:06:04.660Z,25.40
2018-07-08T12:07:05.111Z,25.30
2018-07-08T12:08:05.196Z,25.30
2018-07-08T12:09:05.064Z,25.30
2018-07-08T12:10:05.189Z,25.40
2018-07-08T12:11:04.800Z,25.40
2018-07-08T12:12:05.192Z,25.40
2018-07-08T12:13:05.027Z,25.50
2018-07-08T12:14:04.911Z,25.60
2018-07-08T12:15:04.835Z,25.60
2018-07-08T12:16:04.634Z,25.70
2018-07-08T12:17:05.084Z,25.80
2018-07-08T12:18:04.812Z,25.80
2018-07-08T12:19:05.330Z,25.90
2018-07-08T12:20:04.755Z,25.90
2018-07-08T12:21:05.095Z,26.00
2018-07-08T12:22:05.541Z,26.00
2018-07-08T12:23:04.838Z,26.00
2018-07-08T12:24:04.720Z,26.00
2018-07-08T12:25:05.536Z,26.00
2018-07-08T12:26:04.905Z,26.00
2018-07-08T12:27:05.517Z,26.00
2018-07-08T12:28:04.972Z,26.00
2018-07-08T12:29:05.152Z,26.00
2018-07-08T12:30:05.611Z,26.00
2018-07-08T12:31:04.870Z,26.00
2018-07-08T12:32:05.536Z,26.00
2018-07-08T12:33:05.130Z,26.00
2018-07-08T12:34:04.687Z,26.00
2018-07-08T12:35:05.063Z,26.00
2018-07-08T12:36:04.808Z,26.00
2018-07-08T12:37:04.815Z,26.00
2018-07-08T12:38:05.285Z,26.00
2018-07-08T12:39:04.697Z,26.00
2018-07-08T12:40:05.142Z,26.00
2018-07-08T12:41:04.601Z,26.00
2018-07-08T12:42:05.341Z,26.00
2018-07-08T12:43:05.497Z,26.10
2018-07-08T12:44:05.366Z,26.10
2018-07-08T12:45:04.938Z,26.10
2018-07-08T12:46:05.137Z,26.10
2018-07-08T12:47:06.433Z,26.00
2018-07-08T12:48:04.620Z,26.00
2018-07-08T12:49:05.092Z,26.00
2018-07-08T12:50:04.549Z,26.00
2018-07-08T12:51:05.120Z,26.00
2018-07-08T12:52:05.549Z,26.00